sim
Sign-in with your pilot id or email,
or register
Callsign
Passwort

Schedule Details

Flight Number: OEO7695
Departure: Phoenix Sky Harbor International Airport (KPHX) at 23:10
Arrival: Munich Airport (EDDM) at 10:05

Weather Information
Getting current METAR information for KPHX 260151Z COR 30005KT 10SM FEW230 38/04 A2980 RMK AO2 SLP071 T03780044
Getting current METAR information for EDDM 260220Z 27011KT 9999 -RA SCT014 BKN024 08/06 Q1000 NOSIG

Schedule Frequency

Route Map